Time;durP1;ratioP1;P1;durP2;ratioP2;P2;SDS_P1;SDS_P2;PMS_P1;PMS_P2;Temp;Humidity;BMP_temperature;BMP_pressure;BME280_temperature;BME280_humidity;BME280_pressure;Samples;Min_cycle;Max_cycle;Signal;HPM_P1;HPM_P2
2023/02/12 00:01:21;;;;;;;0.22;0.22;;;;;;;-1.43;58.26;97845.41;4985470;28;20042;-56
2023/02/12 00:03:48;;;;;;;0.20;0.20;;;;;;;-2.29;59.06;97717.88;4983395;28;20476;-56
2023/02/12 00:06:15;;;;;;;0.20;0.20;;;;;;;-1.52;59.27;97824.22;4983549;28;20054;-54
2023/02/12 00:08:42;;;;;;;0.20;0.20;;;;;;;-1.42;58.73;97830.75;4984125;28;20130;-56
2023/02/12 00:11:15;;;;;;;0.30;0.30;;;;;;;-2.09;58.30;97728.75;4985474;28;20133;-55
2023/02/12 00:13:42;;;;;;;0.20;0.20;;;;;;;-1.37;57.83;97828.00;4985310;28;20108;-56
2023/02/12 00:16:12;;;;;;;0.30;0.30;;;;;;;-1.35;57.98;97828.53;4985492;28;20078;-55
2023/02/12 00:18:40;;;;;;;0.30;0.30;;;;;;;-1.60;58.37;97938.84;4985496;28;20408;-55
2023/02/12 00:21:10;;;;;;;0.20;0.20;;;;;;;-2.74;61.32;97671.78;4985621;28;20050;-56
2023/02/12 00:23:39;;;;;;;0.30;0.30;;;;;;;-1.71;61.67;97828.59;4985065;28;20065;-55
2023/02/12 00:26:08;;;;;;;0.22;0.22;;;;;;;-5.04;60.65;97269.09;4985558;28;20058;-54
2023/02/12 00:28:35;;;;;;;0.20;0.20;;;;;;;-1.59;60.49;97804.69;4985331;28;20501;-55
2023/02/12 00:31:12;;;;;;;0.30;0.30;;;;;;;-1.52;60.31;97798.16;4983739;28;20060;-57
2023/02/12 00:33:40;;;;;;;0.20;0.20;;;;;;;-1.34;60.63;97839.13;4985375;28;20090;-54
2023/02/12 00:36:08;;;;;;;0.30;0.30;;;;;;;-1.37;60.25;97800.81;4985164;28;20058;-58
2023/02/12 00:38:35;;;;;;;0.20;0.20;;;;;;;-1.43;59.99;97780.19;4984976;28;20066;-56
2023/02/12 00:41:02;;;;;;;0.25;0.25;;;;;;;-1.11;59.66;97815.97;4985052;28;20046;-55
2023/02/12 00:43:28;;;;;;;0.30;0.30;;;;;;;-1.05;59.23;97820.31;4985122;28;20082;-56
2023/02/12 00:45:55;;;;;;;0.20;0.20;;;;;;;-1.11;58.95;97794.22;4979431;28;20069;-55
2023/02/12 00:48:22;;;;;;;0.20;0.20;;;;;;;-0.90;58.60;97828.41;4996586;28;20059;-55
2023/02/12 00:50:49;;;;;;;0.22;0.22;;;;;;;-0.80;58.05;97828.34;4983189;28;20065;-56
2023/02/12 00:53:15;;;;;;;0.30;0.30;;;;;;;-0.85;58.04;97817.50;5016032;28;20291;-56
2023/02/12 00:55:42;;;;;;;0.30;0.30;;;;;;;-0.96;58.96;97829.50;5016021;28;20058;-56
2023/02/12 00:58:09;;;;;;;0.30;0.30;;;;;;;-1.01;58.60;97805.06;4984792;28;20481;-56
2023/02/12 01:00:36;;;;;;;0.30;0.30;;;;;;;-0.84;58.70;97821.88;4982516;28;20081;-55
2023/02/12 01:03:03;;;;;;;0.30;0.30;;;;;;;-0.94;59.92;97821.88;5015463;28;20116;-56
2023/02/12 01:05:30;;;;;;;0.20;0.20;;;;;;;-1.21;61.01;97784.22;4984583;28;20104;-55
2023/02/12 01:07:57;;;;;;;0.30;0.30;;;;;;;-1.33;62.03;97786.44;4983980;28;20220;-58
2023/02/12 01:10:24;;;;;;;0.30;0.30;;;;;;;-1.17;61.25;97807.00;4985030;28;20403;-56
2023/02/12 01:12:51;;;;;;;0.30;0.30;;;;;;;-1.11;60.79;97799.66;4983334;28;20696;-55
2023/02/12 01:15:17;;;;;;;0.20;0.20;;;;;;;-1.75;60.70;97705.34;4984550;28;20082;-56
2023/02/12 01:17:44;;;;;;;0.30;0.30;;;;;;;-1.11;60.80;97795.06;4984445;28;20133;-55
2023/02/12 01:20:16;;;;;;;0.30;0.30;;;;;;;-1.95;60.06;97670.09;4984404;28;20058;-54
2023/02/12 01:22:43;;;;;;;0.20;0.20;;;;;;;-1.25;59.51;97795.91;4984953;28;20647;-56
2023/02/12 01:25:10;;;;;;;0.30;0.30;;;;;;;-1.43;59.87;97774.75;4984879;28;20142;-55
2023/02/12 01:27:36;;;;;;;0.30;0.30;;;;;;;-1.46;60.24;97769.88;4984009;28;20482;-54
2023/02/12 01:30:05;;;;;;;0.20;0.20;;;;;;;-1.73;60.32;97715.91;5015301;28;20046;-57
2023/02/12 01:32:33;;;;;;;0.30;0.30;;;;;;;-1.40;59.90;97768.78;4982565;28;20473;-56
2023/02/12 01:35:00;;;;;;;0.20;0.20;;;;;;;-2.09;59.79;97654.66;4984590;28;20116;-56
2023/02/12 01:37:27;;;;;;;0.20;0.20;;;;;;;-1.84;59.72;97739.56;4984240;28;20055;-56
2023/02/12 01:39:53;;;;;;;0.20;0.20;;;;;;;-1.68;59.57;97710.47;4984620;28;20141;-56
2023/02/12 01:42:20;;;;;;;0.30;0.30;;;;;;;-2.32;60.11;97618.06;4986895;28;20101;-55
2023/02/12 01:45:11;;;;;;;0.30;0.30;;;;;;;-1.17;60.47;97762.72;4988585;28;20128;-56
2023/02/12 01:47:40;;;;;;;0.20;0.20;;;;;;;-1.16;59.87;97758.91;4987963;28;20074;-56
2023/02/12 01:50:10;;;;;;;0.20;0.20;;;;;;;-1.10;59.58;97752.34;4988385;28;20077;-54
2023/02/12 01:52:40;;;;;;;0.30;0.30;;;;;;;-1.61;59.20;97708.25;4987883;28;20066;-56
2023/02/12 01:55:09;;;;;;;0.30;0.30;;;;;;;-1.16;59.52;97769.78;4987748;28;20512;-56
2023/02/12 01:57:41;;;;;;;0.20;0.20;;;;;;;-1.09;59.46;97775.75;4987753;28;20050;-56
2023/02/12 02:00:21;;;;;;;0.30;0.30;;;;;;;-1.37;61.11;97762.78;4988045;28;20177;-54
2023/02/12 02:02:52;;;;;;;0.30;0.30;;;;;;;-1.27;61.00;97762.75;4987083;28;20050;-57
2023/02/12 02:05:32;;;;;;;0.20;0.20;;;;;;;-1.17;60.85;97801.56;4987639;28;20047;-57
2023/02/12 02:07:58;;;;;;;0.30;0.30;;;;;;;-1.20;61.24;97774.97;4988439;28;20469;-54
2023/02/12 02:10:25;;;;;;;0.20;0.20;;;;;;;-1.34;61.44;97773.13;4987404;28;20050;-56
2023/02/12 02:15:45;;;;;;;0.22;0.22;;;;;;;-1.98;63.05;97703.22;4987761;28;20094;-54
2023/02/12 02:18:47;;;;;;;0.28;0.28;;;;;;;-1.57;62.84;97771.81;4988022;28;20065;-56
2023/02/12 02:21:35;;;;;;;0.20;0.20;;;;;;;-1.65;62.96;97762.34;4987801;28;20509;-56
2023/02/12 02:24:32;;;;;;;0.20;0.20;;;;;;;-2.51;63.30;97630.56;4987357;28;20069;-55
2023/02/12 02:27:10;;;;;;;0.20;0.20;;;;;;;-1.69;62.71;97739.53;4987295;28;20058;-56
2023/02/12 02:30:14;;;;;;;0.30;0.30;;;;;;;-1.71;62.73;97747.13;5011303;28;20051;-55
2023/02/12 02:32:57;;;;;;;0.30;0.30;;;;;;;-1.60;61.86;97737.88;4966614;28;20129;-55
2023/02/12 02:35:57;;;;;;;0.30;0.30;;;;;;;-1.59;61.99;97750.38;4967980;28;20536;-55
2023/02/12 02:38:56;;;;;;;0.30;0.30;;;;;;;-1.59;62.80;97761.22;4975554;28;20054;-55
2023/02/12 02:41:35;;;;;;;0.30;0.30;;;;;;;-1.45;64.28;97744.38;4987085;28;20122;-57
2023/02/12 02:44:09;;;;;;;0.28;0.28;;;;;;;-1.40;63.20;97736.16;4986931;28;20532;-56
2023/02/12 02:46:43;;;;;;;0.25;0.25;;;;;;;-1.29;62.68;97743.19;4987120;28;20093;-57
2023/02/12 02:49:18;;;;;;;0.28;0.28;;;;;;;-1.13;61.52;97739.31;4987756;28;20074;-56
2023/02/12 02:51:50;;;;;;;0.20;0.20;;;;;;;-1.06;61.26;97748.00;4987508;28;20084;-56
2023/02/12 02:54:39;;;;;;;0.20;0.20;;;;;;;-1.40;61.64;97714.44;4985311;28;20146;-56
2023/02/12 02:57:14;;;;;;;0.30;0.30;;;;;;;-1.42;62.03;97711.22;4987496;28;20707;-56
2023/02/12 02:59:51;;;;;;;0.20;0.20;;;;;;;-1.03;61.60;97742.00;4986929;28;20488;-56
2023/02/12 03:02:23;;;;;;;0.30;0.30;;;;;;;-0.94;61.45;97741.16;4987157;28;20078;-57
2023/02/12 03:04:57;;;;;;;0.30;0.30;;;;;;;-0.99;61.69;97749.31;4986481;28;20046;-57
2023/02/12 03:07:26;;;;;;;0.30;0.30;;;;;;;-0.96;62.22;97750.66;4986129;28;20058;-56
2023/02/12 03:10:02;;;;;;;0.30;0.30;;;;;;;-0.87;62.64;97741.63;4986439;28;20050;-56
2023/02/12 03:12:35;;;;;;;0.30;0.30;;;;;;;-0.85;61.59;97742.19;4986826;28;20053;-56
2023/02/12 03:15:09;;;;;;;0.22;0.22;;;;;;;-0.85;62.85;97738.63;4986580;28;20058;-56
2023/02/12 03:17:44;;;;;;;0.30;0.30;;;;;;;-0.75;62.72;97749.47;4985282;28;20136;-54
2023/02/12 03:20:38;;;;;;;0.20;0.20;;;;;;;-0.82;62.38;97727.22;4986616;28;20078;-56
2023/02/12 03:23:15;;;;;;;0.22;0.22;;;;;;;-0.68;62.23;97744.53;4986025;28;20105;-55
2023/02/12 03:25:48;;;;;;;0.30;0.30;;;;;;;-0.66;61.63;97742.34;4986466;28;20054;-55
2023/02/12 03:28:21;;;;;;;0.30;0.30;;;;;;;-0.55;61.32;97738.44;4985997;28;20120;-57
2023/02/12 03:31:13;;;;;;;0.30;0.30;;;;;;;-0.84;61.32;97680.47;4986279;28;20050;-54
2023/02/12 03:33:52;;;;;;;0.20;0.20;;;;;;;-0.51;61.60;97734.91;4986638;28;20599;-54
2023/02/12 03:36:27;;;;;;;0.30;0.30;;;;;;;-0.93;60.83;97699.25;4986798;28;20145;-56
2023/02/12 03:38:57;;;;;;;0.30;0.30;;;;;;;-0.36;60.58;97753.00;5017313;28;20054;-56
2023/02/12 03:41:30;;;;;;;0.25;0.25;;;;;;;-0.68;62.04;97728.22;4986323;28;20050;-56
2023/02/12 03:44:25;;;;;;;0.30;0.30;;;;;;;-0.53;62.65;97749.88;4985886;28;20058;-57
2023/02/12 03:47:08;;;;;;;0.30;0.30;;;;;;;-0.47;62.09;97748.75;4986377;28;20120;-56
2023/02/12 03:49:37;;;;;;;;;;;;;;;-0.47;60.70;97763.16;4986401;28;20054;-56
2023/02/12 03:52:04;;;;;;;0.30;0.30;;;;;;;-0.65;61.55;97754.88;4985546;28;20027;-55
2023/02/12 03:54:31;;;;;;;0.30;0.30;;;;;;;-0.95;61.03;97662.59;4984155;28;20067;-56
2023/02/12 03:57:04;;;;;;;0.30;0.30;;;;;;;-0.49;61.08;97735.41;4985618;28;20589;-55
2023/02/12 03:59:33;;;;;;;0.30;0.30;;;;;;;-0.39;61.59;97731.81;4985366;28;20054;-57
2023/02/12 04:02:00;;;;;;;0.30;0.30;;;;;;;-0.54;60.15;97726.50;4985936;28;20133;-55
2023/02/12 04:04:28;;;;;;;0.30;0.30;;;;;;;-0.41;60.25;97744.91;4985216;28;20050;-55
2023/02/12 04:06:55;;;;;;;0.20;0.20;;;;;;;-0.41;60.03;97750.34;4985871;28;20058;-56
2023/02/12 04:09:25;;;;;;;0.30;0.30;;;;;;;-0.49;60.36;97743.59;4984159;28;20157;-55
2023/02/12 04:12:15;;;;;;;0.30;0.30;;;;;;;-0.56;60.37;97753.16;4985586;28;20105;-57
2023/02/12 04:14:47;;;;;;;0.30;0.30;;;;;;;-0.50;59.90;97738.44;4985250;28;20054;-54
2023/02/12 04:17:37;;;;;;;0.30;0.30;;;;;;;-0.63;59.41;97726.28;5016638;28;20548;-56
2023/02/12 04:20:15;;;;;;;0.30;0.30;;;;;;;-0.90;58.50;97681.59;4984933;28;20104;-57
2023/02/12 04:23:00;;;;;;;0.30;0.30;;;;;;;-0.47;57.87;97737.84;4984555;28;20529;-56
2023/02/12 04:25:50;;;;;;;0.20;0.20;;;;;;;-0.48;58.23;97722.63;4983687;28;20050;-57
2023/02/12 04:28:28;;;;;;;0.30;0.30;;;;;;;-0.51;57.77;97739.53;4985553;28;20522;-56
2023/02/12 04:31:02;;;;;;;0.30;0.30;;;;;;;-0.33;58.16;97730.66;4985163;28;20054;-57
2023/02/12 04:33:47;;;;;;;0.30;0.30;;;;;;;-0.65;57.51;97662.38;4984771;28;20587;-59
2023/02/12 04:36:20;;;;;;;0.30;0.30;;;;;;;-0.14;56.69;97729.72;4984945;28;20116;-55
2023/02/12 04:38:55;;;;;;;0.30;0.30;;;;;;;-0.79;60.26;97737.53;5016628;28;20109;-56
2023/02/12 04:41:21;;;;;;;0.20;0.20;;;;;;;-0.75;60.43;97733.16;4984907;28;20089;-55
2023/02/12 04:43:48;;;;;;;0.20;0.20;;;;;;;-0.54;60.06;97740.09;4985402;28;20133;-55
2023/02/12 04:46:14;;;;;;;0.30;0.30;;;;;;;-0.73;59.31;97688.28;4984696;28;20050;-55
2023/02/12 04:48:53;;;;;;;0.20;0.20;;;;;;;-0.33;59.04;97742.38;4983143;28;20050;-57
2023/02/12 04:51:20;;;;;;;0.30;0.30;;;;;;;-0.36;60.44;97755.75;4984760;28;20090;-55
2023/02/12 04:53:47;;;;;;;0.30;0.30;;;;;;;-0.37;61.72;97773.19;4984554;28;20085;-55
2023/02/12 04:56:14;;;;;;;0.30;0.30;;;;;;;-0.41;62.14;97766.69;4965621;28;20051;-57
2023/02/12 04:58:41;;;;;;;0.30;0.30;;;;;;;-0.59;60.73;97748.28;4962939;28;20584;-57
2023/02/12 05:01:09;;;;;;;0.30;0.30;;;;;;;-0.55;62.80;97792.88;4965352;28;20050;-55
2023/02/12 05:03:36;;;;;;;0.30;0.30;;;;;;;-0.90;65.18;97774.03;4965242;28;20066;-57
2023/02/12 05:06:04;;;;;;;0.30;0.30;;;;;;;-1.41;64.37;97707.38;4965216;28;20051;-56
2023/02/12 05:08:31;;;;;;;0.30;0.30;;;;;;;-0.77;63.85;97778.84;4963743;28;20153;-57
2023/02/12 05:11:03;;;;;;;0.30;0.30;;;;;;;-0.75;63.59;97757.63;4965082;28;20085;-55
2023/02/12 05:13:30;;;;;;;0.20;0.20;;;;;;;-0.51;63.63;97788.50;4966138;28;20117;-56
2023/02/12 05:15:56;;;;;;;0.30;0.30;;;;;;;-0.38;63.23;97787.88;4964885;28;20804;-57
2023/02/12 05:18:24;;;;;;;0.30;0.30;;;;;;;-1.06;62.91;97699.09;4965078;28;20062;-57
2023/02/12 05:21:01;;;;;;;0.20;0.20;;;;;;;-0.38;61.99;97791.41;4965405;28;20557;-57
2023/02/12 05:23:29;;;;;;;0.30;0.30;;;;;;;-0.26;62.71;97782.88;4964923;28;20134;-57
2023/02/12 05:26:01;;;;;;;0.30;0.30;;;;;;;-0.15;61.08;97803.50;4965090;28;20047;-55
2023/02/12 05:28:28;;;;;;;0.30;0.30;;;;;;;-0.14;61.42;97796.94;4965137;28;20094;-55
2023/02/12 05:31:00;;;;;;;0.30;0.30;;;;;;;0.00;59.35;97806.13;4968014;28;20050;-56
2023/02/12 05:33:27;;;;;;;0.30;0.30;;;;;;;-0.14;59.88;97794.22;4984804;28;20085;-56
2023/02/12 05:35:54;;;;;;;0.30;0.30;;;;;;;-0.30;59.74;97752.69;4984452;28;20058;-56
2023/02/12 05:38:21;;;;;;;0.30;0.30;;;;;;;-0.03;59.45;97817.56;4965821;28;20337;-55
2023/02/12 05:40:48;;;;;;;0.30;0.30;;;;;;;-0.18;59.13;97820.41;4964784;28;20121;-57
2023/02/12 05:43:15;;;;;;;0.30;0.30;;;;;;;-0.08;59.12;97814.91;4964767;28;20105;-57
2023/02/12 05:45:43;;;;;;;0.30;0.30;;;;;;;-0.26;59.98;97808.22;4963196;28;20050;-57
2023/02/12 05:48:10;;;;;;;0.30;0.30;;;;;;;-0.14;58.79;97814.09;4963924;28;20517;-56
2023/02/12 05:50:37;;;;;;;0.30;0.30;;;;;;;-0.25;58.82;97809.00;4963554;28;20062;-55
2023/02/12 05:53:03;;;;;;;0.30;0.30;;;;;;;-0.23;59.80;97814.97;4963984;28;20062;-56
2023/02/12 05:55:30;;;;;;;0.30;0.30;;;;;;;-0.27;60.00;97811.22;4978105;28;20169;-56
2023/02/12 05:57:57;;;;;;;0.30;0.30;;;;;;;-0.20;59.98;97828.03;4984106;28;20541;-55
2023/02/12 06:00:23;;;;;;;0.30;0.30;;;;;;;-0.44;59.11;97759.88;4983291;28;20058;-58
2023/02/12 06:02:50;;;;;;;0.30;0.30;;;;;;;-0.09;58.11;97803.19;5015565;28;20510;-57
2023/02/12 06:05:17;;;;;;;0.30;0.30;;;;;;;-0.44;57.29;97753.63;4983928;28;20140;-57
2023/02/12 06:07:43;;;;;;;0.30;0.30;;;;;;;0.01;57.55;97818.63;4984070;28;20510;-56
2023/02/12 06:10:10;;;;;;;0.30;0.30;;;;;;;0.21;56.90;97806.75;4984307;28;20096;-57
2023/02/12 06:12:37;;;;;;;0.30;0.30;;;;;;;0.46;56.54;97820.97;4984289;28;20178;-56
2023/02/12 06:15:03;;;;;;;0.30;0.30;;;;;;;0.16;55.63;97749.63;4984066;28;20109;-56
2023/02/12 06:17:30;;;;;;;0.22;0.22;;;;;;;0.25;56.51;97775.94;5015018;28;20073;-57
2023/02/12 06:19:57;;;;;;;0.30;0.30;;;;;;;0.72;55.46;97829.72;5015085;28;20065;-56
2023/02/12 06:22:23;;;;;;;0.30;0.30;;;;;;;0.95;55.35;97835.19;4983700;28;20093;-57
2023/02/12 06:24:50;;;;;;;0.30;0.30;;;;;;;1.15;54.02;97840.44;4983830;28;20089;-57
2023/02/12 06:27:16;;;;;;;0.30;0.30;;;;;;;1.26;54.63;97841.13;4983596;28;20058;-57
2023/02/12 06:29:43;;;;;;;0.30;0.30;;;;;;;1.36;54.68;97847.25;4986392;28;20129;-56
2023/02/12 06:32:12;;;;;;;0.30;0.30;;;;;;;1.36;54.84;97840.97;4987466;28;20062;-56
2023/02/12 06:34:39;;;;;;;0.30;0.30;;;;;;;0.77;58.52;97855.03;4985363;28;20074;-58
2023/02/12 06:37:06;;;;;;;0.30;0.30;;;;;;;0.50;59.77;97865.63;4987118;28;20050;-55
2023/02/12 06:39:32;;;;;;;0.38;0.38;;;;;;;0.54;59.36;97823.06;4987240;28;20092;-57
2023/02/12 06:42:00;;;;;;;0.30;0.30;;;;;;;0.89;58.65;97830.91;4987143;28;20054;-55
2023/02/12 06:44:26;;;;;;;0.30;0.30;;;;;;;0.91;58.50;97804.16;4987057;28;20057;-57
2023/02/12 06:46:53;;;;;;;0.40;0.40;;;;;;;1.14;57.86;97795.13;5017670;28;20050;-56
2023/02/12 06:49:20;;;;;;;0.30;0.30;;;;;;;1.34;56.99;97783.16;4987328;28;20060;-57
2023/02/12 06:51:46;;;;;;;0.30;0.30;;;;;;;1.87;56.40;97862.97;4999411;28;20114;-56
2023/02/12 06:54:15;;;;;;;0.40;0.40;;;;;;;1.87;55.72;97838.38;4967408;28;20523;-56
2023/02/12 06:56:42;;;;;;;0.32;0.32;;;;;;;2.22;54.51;97859.72;4966882;28;20114;-58
2023/02/12 06:59:14;;;;;;;0.30;0.30;;;;;;;2.19;54.25;97822.06;4974317;28;20133;-57
2023/02/12 07:01:40;;;;;;;0.40;0.40;;;;;;;2.44;53.80;97835.31;4986723;28;20054;-56
2023/02/12 07:04:07;;;;;;;0.40;0.40;;;;;;;2.72;53.08;97859.69;4988888;28;20131;-57
2023/02/12 07:06:35;;;;;;;0.32;0.32;;;;;;;2.46;52.84;97814.78;4991514;28;20054;-57
2023/02/12 07:09:03;;;;;;;0.40;0.40;;;;;;;3.05;52.30;97868.72;4986481;28;20112;-57
2023/02/12 07:11:34;;;;;;;0.40;0.40;;;;;;;2.88;51.95;97835.63;4984990;28;20054;-56
2023/02/12 07:14:04;;;;;;;0.40;0.40;;;;;;;3.43;51.21;97870.13;4986698;28;20054;-55
2023/02/12 07:16:31;;;;;;;0.40;0.40;;;;;;;3.10;50.04;97800.16;4985375;28;20089;-57
2023/02/12 07:18:57;;;;;;;0.40;0.40;;;;;;;3.60;48.88;97842.97;5017720;28;20092;-56
2023/02/12 07:21:24;;;;;;;0.40;0.40;;;;;;;3.48;48.67;97807.03;5017517;28;20154;-56
2023/02/12 07:23:51;;;;;;;0.40;0.40;;;;;;;4.02;48.24;97866.41;5016885;28;20058;-57
2023/02/12 07:26:20;;;;;;;0.43;0.43;;;;;;;3.83;47.25;97809.03;4985707;28;20069;-56
2023/02/12 07:28:47;;;;;;;0.40;0.40;;;;;;;4.23;46.49;97873.91;4986509;28;20058;-57
2023/02/12 07:31:16;;;;;;;0.40;0.40;;;;;;;4.32;46.20;97904.94;4985873;28;20141;-57
2023/02/12 07:33:44;;;;;;;0.40;0.40;;;;;;;4.06;45.33;97837.28;4986231;28;20214;-57
2023/02/12 07:36:14;;;;;;;0.45;0.45;;;;;;;4.52;45.31;97871.53;4985895;28;20151;-56
2023/02/12 07:38:41;;;;;;;0.40;0.40;;;;;;;4.66;44.91;97866.78;4985552;28;20062;-56
2023/02/12 07:41:20;;;;;;;0.47;0.47;;;;;;;4.71;45.66;97873.28;4985938;28;20062;-56
2023/02/12 07:43:48;;;;;;;0.40;0.40;;;;;;;4.84;45.97;97862.25;5017104;28;20142;-55
2023/02/12 07:46:21;;;;;;;0.50;0.50;;;;;;;4.93;45.51;97843.09;4986538;28;20054;-58
2023/02/12 07:48:50;;;;;;;0.50;0.50;;;;;;;4.65;46.40;97826.78;4985350;28;20082;-57
2023/02/12 07:51:18;;;;;;;0.50;0.50;;;;;;;4.90;46.73;97860.19;5015625;28;20521;-57
2023/02/12 07:53:44;;;;;;;0.50;0.50;;;;;;;4.88;47.91;97867.91;4985536;28;20097;-55
2023/02/12 07:56:18;;;;;;;0.40;0.40;;;;;;;4.99;47.18;97869.28;4985665;28;20150;-57
2023/02/12 07:58:45;;;;;;;;;;;;;;;5.03;47.30;97862.84;4986595;28;20054;-55
2023/02/12 08:01:12;;;;;;;0.50;0.50;;;;;;;4.99;47.15;97864.59;4985132;28;19925;-57
2023/02/12 08:03:39;;;;;;;0.50;0.50;;;;;;;4.83;47.38;97843.34;4984902;28;20042;-56
2023/02/12 08:06:15;;;;;;;0.40;0.40;;;;;;;5.14;47.69;97871.63;4985905;28;20050;-55
2023/02/12 08:08:42;;;;;;;0.50;0.50;;;;;;;5.31;46.48;97856.03;4985264;28;20506;-57
2023/02/12 08:11:10;;;;;;;0.50;0.50;;;;;;;4.90;46.61;97865.69;4985255;28;20098;-57
2023/02/12 08:13:37;;;;;;;0.50;0.50;;;;;;;4.59;46.50;97839.00;4985053;28;20128;-55
2023/02/12 08:16:07;;;;;;;0.50;0.50;;;;;;;4.39;46.38;97825.78;4985412;28;20133;-58
2023/02/12 08:18:34;;;;;;;0.50;0.50;;;;;;;4.87;45.18;97800.44;4982301;28;20524;-57
2023/02/12 08:21:05;;;;;;;0.50;0.50;;;;;;;5.71;44.65;97848.56;5004725;28;20050;-55
2023/02/12 08:23:32;;;;;;;0.60;0.60;;;;;;;5.61;44.34;97866.16;5003615;28;20144;-57
2023/02/12 08:26:19;;;;;;;0.50;0.50;;;;;;;5.80;43.47;97874.16;5005239;28;20053;-55
2023/02/12 08:28:49;;;;;;;0.50;0.50;;;;;;;6.14;43.24;97844.00;5004283;28;20123;-55
2023/02/12 08:31:19;;;;;;;0.60;0.60;;;;;;;6.70;42.06;97865.84;5004901;28;20148;-56
2023/02/12 08:33:47;;;;;;;0.60;0.60;;;;;;;7.05;42.28;97866.63;5002878;28;20056;-57
2023/02/12 08:36:18;;;;;;;0.60;0.60;;;;;;;6.18;42.06;97867.78;5003952;28;20169;-53
2023/02/12 08:38:46;;;;;;;0.50;0.50;;;;;;;5.28;42.42;97800.94;5004424;28;20073;-57
2023/02/12 08:41:19;;;;;;;0.65;0.65;;;;;;;5.75;42.86;97882.56;5003962;28;20141;-55
2023/02/12 08:43:48;;;;;;;0.50;0.50;;;;;;;6.30;41.41;97875.41;5002591;28;20081;-54
2023/02/12 08:46:24;;;;;;;0.55;0.55;;;;;;;6.73;41.02;97881.75;5004318;28;20054;-55
2023/02/12 08:48:54;;;;;;;0.60;0.60;;;;;;;7.14;40.60;97876.50;5003779;28;20088;-59
2023/02/12 08:51:23;;;;;;;0.60;0.60;;;;;;;7.14;40.58;97903.22;5003092;28;20136;-54
2023/02/12 08:53:55;;;;;;;0.70;0.70;;;;;;;7.82;40.17;97891.16;5003599;28;20104;-56
2023/02/12 08:56:23;;;;;;;0.65;0.65;;;;;;;7.84;39.36;97905.44;5004131;28;20173;-56
2023/02/12 08:58:51;;;;;;;0.70;0.70;;;;;;;8.08;39.84;97884.38;5002281;28;20461;-56
2023/02/12 09:01:22;;;;;;;0.70;0.70;;;;;;;8.51;39.13;97897.91;5002560;28;20536;-54
2023/02/12 09:03:50;;;;;;;0.75;0.75;;;;;;;8.78;39.24;97900.13;5002211;28;20058;-56
2023/02/12 09:06:19;;;;;;;0.75;0.75;;;;;;;8.79;39.07;97898.97;5003525;28;20045;-55
2023/02/12 09:08:46;;;;;;;0.70;0.70;;;;;;;8.92;38.84;97884.09;5003377;28;20049;-56
2023/02/12 09:11:18;;;;;;;0.70;0.70;;;;;;;8.95;37.39;97902.75;5003629;28;20073;-55
2023/02/12 09:13:46;;;;;;;0.70;0.70;;;;;;;8.85;37.52;97908.72;5003981;28;20053;-54
2023/02/12 09:16:13;;;;;;;0.70;0.70;;;;;;;8.97;36.96;97917.03;5004111;28;20086;-56
2023/02/12 09:18:40;;;;;;;0.70;0.70;;;;;;;8.51;37.26;97882.16;5004195;28;20480;-57
2023/02/12 09:21:10;;;;;;;0.70;0.70;;;;;;;7.65;39.03;97906.63;5004211;28;20050;-54
2023/02/12 09:23:37;;;;;;;0.70;0.70;;;;;;;7.35;38.59;97927.00;5004218;28;20085;-56
2023/02/12 09:26:06;;;;;;;0.68;0.68;;;;;;;6.69;39.83;97886.25;5003412;28;20134;-54
2023/02/12 09:28:33;;;;;;;0.70;0.70;;;;;;;7.59;39.33;97924.50;5003905;28;20406;-56
2023/02/12 09:31:09;;;;;;;0.70;0.70;;;;;;;8.29;38.79;97932.16;5002209;28;20089;-57
2023/02/12 09:33:36;;;;;;;0.70;0.70;;;;;;;7.28;39.30;97877.09;5002755;28;20064;-54
2023/02/12 09:36:05;;;;;;;0.70;0.70;;;;;;;7.92;39.04;97932.19;4986625;28;20136;-54
2023/02/12 09:38:32;;;;;;;0.63;0.63;;;;;;;7.80;38.20;97893.44;5003627;28;20120;-54
2023/02/12 09:41:37;;;;;;;0.63;0.63;;;;;;;8.14;39.08;97931.91;5001986;28;20050;-56
2023/02/12 09:44:54;;;;;;;0.70;0.70;;;;;;;8.40;37.77;97930.63;5002419;28;20060;-55
2023/02/12 09:47:59;;;;;;;0.70;0.70;;;;;;;8.40;38.24;97940.88;4942628;29;20083;-57
2023/02/12 09:50:36;;;;;;;0.68;0.68;;;;;;;8.00;38.35;97928.56;4942523;29;20059;-55
2023/02/12 09:53:04;;;;;;;0.70;0.70;;;;;;;8.62;39.05;97938.59;4988739;28;20057;-55
2023/02/12 09:55:33;;;;;;;0.80;0.80;;;;;;;8.94;37.34;97939.81;5001932;28;20053;-55
2023/02/12 09:58:04;;;;;;;0.70;0.70;;;;;;;8.88;37.68;97941.19;5003982;28;20045;-58
2023/02/12 10:00:31;;;;;;;0.70;0.70;;;;;;;7.99;37.63;97874.53;5001758;28;20045;-58
2023/02/12 10:03:01;;;;;;;0.70;0.70;;;;;;;8.19;37.94;97928.97;5005533;28;20060;-58
2023/02/12 10:05:37;;;;;;;0.77;0.77;;;;;;;8.67;37.49;97923.78;5007322;28;20132;-58
2023/02/12 10:08:21;;;;;;;0.70;0.70;;;;;;;9.49;37.30;97920.91;5007452;28;20057;-58
2023/02/12 10:10:59;;;;;;;0.80;0.80;;;;;;;9.95;36.14;97923.31;5002151;28;20454;-56
2023/02/12 10:13:35;;;;;;;0.90;0.90;;;;;;;10.47;35.88;97923.44;4989348;28;20062;-55
2023/02/12 10:16:18;;;;;;;0.80;0.80;;;;;;;11.04;35.28;97912.09;5005758;28;20461;-56
2023/02/12 10:18:54;;;;;;;0.90;0.90;;;;;;;11.23;34.15;97909.47;5006019;28;20096;-58
2023/02/12 10:21:39;;;;;;;1.00;1.00;;;;;;;11.64;33.97;97909.88;5007015;28;20104;-55
2023/02/12 10:24:12;;;;;;;1.00;1.00;;;;;;;11.94;33.48;97913.03;4987376;28;20517;-54
2023/02/12 10:26:48;;;;;;;0.90;0.90;;;;;;;10.95;34.85;97905.88;4985903;28;20062;-56
2023/02/12 10:29:22;;;;;;;0.90;0.90;;;;;;;11.17;34.07;97916.44;4988008;28;20054;-55
2023/02/12 10:31:57;;;;;;;0.93;0.93;;;;;;;10.86;33.98;97858.91;4987023;28;20492;-57
2023/02/12 10:34:29;;;;;;;0.90;0.90;;;;;;;11.58;34.09;97908.50;4987598;28;20521;-55
2023/02/12 10:37:11;;;;;;;0.90;0.90;;;;;;;11.81;33.72;97914.25;4991217;28;20128;-55
2023/02/12 10:39:47;;;;;;;0.90;0.90;;;;;;;11.73;33.93;97923.56;5006860;28;20061;-56
2023/02/12 10:42:20;;;;;;;0.90;0.90;;;;;;;11.38;33.44;97844.91;5007270;28;20050;-57
2023/02/12 10:44:46;;;;;;;0.87;0.87;;;;;;;11.18;33.73;97873.66;5006958;28;20081;-55
2023/02/12 10:47:18;;;;;;;1.00;1.00;;;;;;;11.44;34.17;97910.06;5006594;28;20501;-57
2023/02/12 10:49:53;;;;;;;1.00;1.00;;;;;;;11.77;33.71;97918.94;5005271;28;20050;-57
2023/02/12 10:52:43;;;;;;;0.90;0.90;;;;;;;11.63;33.46;97921.34;5003763;28;20128;-55
2023/02/12 10:55:34;;;;;;;0.95;0.95;;;;;;;11.91;33.22;97922.06;5006217;28;20426;-56
2023/02/12 10:58:03;;;;;;;0.90;0.90;;;;;;;12.20;32.47;97927.19;5005702;28;20557;-54
2023/02/12 11:00:30;;;;;;;1.10;1.10;;;;;;;12.50;32.16;97922.78;5006391;28;20201;-57
2023/02/12 11:03:21;;;;;;;0.90;0.90;;;;;;;11.25;32.82;97934.91;5005166;28;20061;-56
2023/02/12 11:05:48;;;;;;;0.80;0.80;;;;;;;10.24;33.87;97886.31;4997159;28;20604;-56
2023/02/12 11:08:36;;;;;;;0.88;0.88;;;;;;;10.54;34.93;97938.31;5006642;28;20053;-54
2023/02/12 11:11:10;;;;;;;0.80;0.80;;;;;;;11.38;33.63;97933.69;4985130;28;20058;-57
2023/02/12 11:13:40;;;;;;;0.90;0.90;;;;;;;10.66;34.36;97946.63;4993101;28;20137;-54
2023/02/12 11:16:07;;;;;;;0.90;0.90;;;;;;;10.49;34.59;97899.78;5005549;28;20576;-56
2023/02/12 11:18:36;;;;;;;0.90;0.90;;;;;;;10.89;34.29;97940.56;5005785;28;20412;-55
2023/02/12 11:21:11;;;;;;;0.88;0.88;;;;;;;10.16;35.99;97948.16;5005756;28;20050;-55
2023/02/12 11:23:40;;;;;;;0.80;0.80;;;;;;;9.96;36.31;97960.88;5005798;28;20077;-57
2023/02/12 11:26:19;;;;;;;0.80;0.80;;;;;;;10.08;35.80;97963.72;5005589;28;20575;-55
2023/02/12 11:28:58;;;;;;;0.80;0.80;;;;;;;9.93;35.81;97933.91;5006013;28;20493;-55
2023/02/12 11:31:27;;;;;;;0.88;0.88;;;;;;;9.99;35.64;97915.13;5006163;28;20070;-55
2023/02/12 11:34:29;;;;;;;1.00;1.00;;;;;;;10.08;36.24;97963.72;5006194;28;20050;-57
2023/02/12 11:36:57;;;;;;;0.70;0.70;;;;;;;9.62;36.54;97972.34;4963690;28;20069;-58
2023/02/12 11:39:32;;;;;;;0.70;0.70;;;;;;;9.24;36.21;97971.75;4982297;28;20078;-57
2023/02/12 11:42:00;;;;;;;0.80;0.80;;;;;;;9.23;36.59;97949.97;4986075;28;20140;-55
2023/02/12 11:44:36;;;;;;;0.80;0.80;;;;;;;10.01;36.16;97957.09;4993648;28;20085;-54
2023/02/12 11:47:07;;;;;;;0.80;0.80;;;;;;;10.07;35.63;97967.63;5005878;28;20108;-54
2023/02/12 11:49:47;;;;;;;0.70;0.70;;;;;;;9.11;36.42;97967.31;4989463;28;20366;-55
2023/02/12 11:52:21;;;;;;;0.70;0.70;;;;;;;9.04;37.30;97978.13;4984783;28;20062;-58
2023/02/12 11:54:52;;;;;;;0.70;0.70;;;;;;;8.70;38.42;97972.81;4986083;28;20065;-56
2023/02/12 11:57:42;;;;;;;0.80;0.80;;;;;;;9.10;37.46;97982.28;4985594;28;20502;-59
2023/02/12 12:00:34;;;;;;;0.70;0.70;;;;;;;8.55;38.24;97976.19;4999043;28;20060;-54
2023/02/12 12:03:10;;;;;;;0.70;0.70;;;;;;;8.99;38.44;97972.78;5005201;28;20092;-58